sensor_id;sensor_type;location;lat;lon;timestamp;P1;durP1;ratioP1;P2;durP2;ratioP2
40959;SDS011;27842;52.272;8.052;2024-03-29T00:00:26;6.55;;;1.35;;
40959;SDS011;27842;52.272;8.052;2024-03-29T00:02:51;7.60;;;1.40;;
40959;SDS011;27842;52.272;8.052;2024-03-29T00:05:17;6.20;;;1.65;;
40959;SDS011;27842;52.272;8.052;2024-03-29T00:07:43;5.82;;;1.55;;
40959;SDS011;27842;52.272;8.052;2024-03-29T00:10:08;8.02;;;1.63;;
40959;SDS011;27842;52.272;8.052;2024-03-29T00:12:34;5.78;;;1.55;;
40959;SDS011;27842;52.272;8.052;2024-03-29T00:14:59;4.40;;;1.48;;
40959;SDS011;27842;52.272;8.052;2024-03-29T00:17:25;5.30;;;1.25;;
40959;SDS011;27842;52.272;8.052;2024-03-29T00:19:50;6.45;;;1.60;;
40959;SDS011;27842;52.272;8.052;2024-03-29T00:22:16;8.50;;;1.50;;
40959;SDS011;27842;52.272;8.052;2024-03-29T00:24:41;4.70;;;1.33;;
40959;SDS011;27842;52.272;8.052;2024-03-29T00:27:07;7.43;;;1.65;;
40959;SDS011;27842;52.272;8.052;2024-03-29T00:29:32;7.72;;;1.60;;
40959;SDS011;27842;52.272;8.052;2024-03-29T00:31:59;7.13;;;1.60;;
40959;SDS011;27842;52.272;8.052;2024-03-29T00:34:24;8.82;;;1.80;;
40959;SDS011;27842;52.272;8.052;2024-03-29T00:36:50;6.18;;;1.67;;
40959;SDS011;27842;52.272;8.052;2024-03-29T00:39:17;7.78;;;1.40;;
40959;SDS011;27842;52.272;8.052;2024-03-29T00:41:43;7.28;;;1.60;;
40959;SDS011;27842;52.272;8.052;2024-03-29T00:44:08;5.65;;;1.35;;
40959;SDS011;27842;52.272;8.052;2024-03-29T00:46:34;8.75;;;2.22;;
40959;SDS011;27842;52.272;8.052;2024-03-29T00:48:59;4.90;;;1.35;;
40959;SDS011;27842;52.272;8.052;2024-03-29T00:51:25;6.35;;;1.30;;
40959;SDS011;27842;52.272;8.052;2024-03-29T00:53:51;5.90;;;1.48;;
40959;SDS011;27842;52.272;8.052;2024-03-29T00:56:17;5.03;;;1.35;;
40959;SDS011;27842;52.272;8.052;2024-03-29T00:58:42;7.25;;;1.58;;
40959;SDS011;27842;52.272;8.052;2024-03-29T01:01:08;5.63;;;1.40;;
40959;SDS011;27842;52.272;8.052;2024-03-29T01:03:33;8.80;;;1.58;;
40959;SDS011;27842;52.272;8.052;2024-03-29T01:05:59;8.60;;;1.58;;
40959;SDS011;27842;52.272;8.052;2024-03-29T01:08:24;6.45;;;1.55;;
40959;SDS011;27842;52.272;8.052;2024-03-29T01:10:50;10.30;;;1.60;;
40959;SDS011;27842;52.272;8.052;2024-03-29T01:13:16;9.57;;;1.80;;
40959;SDS011;27842;52.272;8.052;2024-03-29T01:15:41;5.10;;;1.60;;
40959;SDS011;27842;52.272;8.052;2024-03-29T01:18:07;7.05;;;1.75;;
40959;SDS011;27842;52.272;8.052;2024-03-29T01:20:33;7.65;;;1.65;;
40959;SDS011;27842;52.272;8.052;2024-03-29T01:22:59;9.52;;;1.60;;
40959;SDS011;27842;52.272;8.052;2024-03-29T01:25:24;9.40;;;1.70;;
40959;SDS011;27842;52.272;8.052;2024-03-29T01:27:50;7.22;;;1.90;;
40959;SDS011;27842;52.272;8.052;2024-03-29T01:30:15;5.47;;;1.52;;
40959;SDS011;27842;52.272;8.052;2024-03-29T01:32:41;6.25;;;1.33;;
40959;SDS011;27842;52.272;8.052;2024-03-29T01:35:06;11.82;;;1.63;;
40959;SDS011;27842;52.272;8.052;2024-03-29T01:37:32;6.70;;;1.60;;
40959;SDS011;27842;52.272;8.052;2024-03-29T01:39:59;5.50;;;1.30;;
40959;SDS011;27842;52.272;8.052;2024-03-29T01:42:24;4.40;;;1.00;;
40959;SDS011;27842;52.272;8.052;2024-03-29T01:44:50;5.18;;;1.30;;
40959;SDS011;27842;52.272;8.052;2024-03-29T01:47:16;6.50;;;1.60;;
40959;SDS011;27842;52.272;8.052;2024-03-29T01:49:43;7.38;;;1.50;;
40959;SDS011;27842;52.272;8.052;2024-03-29T01:52:10;5.45;;;1.38;;
40959;SDS011;27842;52.272;8.052;2024-03-29T01:54:36;6.32;;;1.38;;
40959;SDS011;27842;52.272;8.052;2024-03-29T01:57:02;5.72;;;1.52;;
40959;SDS011;27842;52.272;8.052;2024-03-29T01:59:28;3.80;;;1.27;;
40959;SDS011;27842;52.272;8.052;2024-03-29T02:01:54;7.32;;;1.00;;
40959;SDS011;27842;52.272;8.052;2024-03-29T02:04:19;7.07;;;1.20;;
40959;SDS011;27842;52.272;8.052;2024-03-29T02:06:46;5.38;;;1.20;;
40959;SDS011;27842;52.272;8.052;2024-03-29T02:09:12;6.88;;;1.20;;
40959;SDS011;27842;52.272;8.052;2024-03-29T02:11:38;5.47;;;1.20;;
40959;SDS011;27842;52.272;8.052;2024-03-29T02:14:03;4.20;;;1.48;;
40959;SDS011;27842;52.272;8.052;2024-03-29T02:16:31;9.35;;;1.50;;
40959;SDS011;27842;52.272;8.052;2024-03-29T02:18:57;6.28;;;1.42;;
40959;SDS011;27842;52.272;8.052;2024-03-29T02:21:22;5.82;;;1.40;;
40959;SDS011;27842;52.272;8.052;2024-03-29T02:26:35;5.65;;;1.15;;
40959;SDS011;27842;52.272;8.052;2024-03-29T02:29:03;6.25;;;1.27;;
40959;SDS011;27842;52.272;8.052;2024-03-29T02:31:29;5.90;;;1.42;;
40959;SDS011;27842;52.272;8.052;2024-03-29T02:33:55;4.15;;;1.23;;
40959;SDS011;27842;52.272;8.052;2024-03-29T02:36:20;5.63;;;1.20;;
40959;SDS011;27842;52.272;8.052;2024-03-29T02:38:46;6.93;;;1.15;;
40959;SDS011;27842;52.272;8.052;2024-03-29T02:41:11;6.18;;;1.42;;
40959;SDS011;27842;52.272;8.052;2024-03-29T02:43:37;6.85;;;1.40;;
40959;SDS011;27842;52.272;8.052;2024-03-29T02:46:02;7.82;;;1.45;;
40959;SDS011;27842;52.272;8.052;2024-03-29T02:48:28;5.97;;;1.80;;
40959;SDS011;27842;52.272;8.052;2024-03-29T02:50:54;4.50;;;1.42;;
40959;SDS011;27842;52.272;8.052;2024-03-29T02:53:19;4.72;;;1.20;;
40959;SDS011;27842;52.272;8.052;2024-03-29T02:55:45;7.93;;;1.20;;
40959;SDS011;27842;52.272;8.052;2024-03-29T02:58:10;7.55;;;1.65;;
40959;SDS011;27842;52.272;8.052;2024-03-29T03:00:35;2.72;;;1.08;;
40959;SDS011;27842;52.272;8.052;2024-03-29T03:03:01;3.88;;;1.10;;
40959;SDS011;27842;52.272;8.052;2024-03-29T03:05:27;3.05;;;1.10;;
40959;SDS011;27842;52.272;8.052;2024-03-29T03:07:54;5.43;;;1.25;;
40959;SDS011;27842;52.272;8.052;2024-03-29T03:10:44;5.25;;;1.45;;
40959;SDS011;27842;52.272;8.052;2024-03-29T03:13:24;4.82;;;1.25;;
40959;SDS011;27842;52.272;8.052;2024-03-29T03:15:51;8.45;;;1.60;;
40959;SDS011;27842;52.272;8.052;2024-03-29T03:18:16;6.10;;;1.30;;
40959;SDS011;27842;52.272;8.052;2024-03-29T03:20:42;7.63;;;1.35;;
40959;SDS011;27842;52.272;8.052;2024-03-29T03:23:07;4.10;;;1.20;;
40959;SDS011;27842;52.272;8.052;2024-03-29T03:25:33;7.18;;;1.50;;
40959;SDS011;27842;52.272;8.052;2024-03-29T03:27:59;6.88;;;1.17;;
40959;SDS011;27842;52.272;8.052;2024-03-29T03:30:24;7.72;;;1.67;;
40959;SDS011;27842;52.272;8.052;2024-03-29T03:32:50;6.03;;;1.17;;
40959;SDS011;27842;52.272;8.052;2024-03-29T03:35:15;5.43;;;1.05;;
40959;SDS011;27842;52.272;8.052;2024-03-29T03:37:41;6.00;;;1.13;;
40959;SDS011;27842;52.272;8.052;2024-03-29T03:40:07;3.72;;;1.00;;
40959;SDS011;27842;52.272;8.052;2024-03-29T03:42:32;3.42;;;1.02;;
40959;SDS011;27842;52.272;8.052;2024-03-29T03:44:58;6.80;;;1.77;;
40959;SDS011;27842;52.272;8.052;2024-03-29T03:47:23;5.47;;;1.55;;
40959;SDS011;27842;52.272;8.052;2024-03-29T03:49:49;5.72;;;1.20;;
40959;SDS011;27842;52.272;8.052;2024-03-29T03:52:15;4.30;;;1.10;;
40959;SDS011;27842;52.272;8.052;2024-03-29T03:54:40;5.60;;;1.05;;
40959;SDS011;27842;52.272;8.052;2024-03-29T03:57:06;3.28;;;1.35;;
40959;SDS011;27842;52.272;8.052;2024-03-29T03:59:31;7.15;;;1.30;;
40959;SDS011;27842;52.272;8.052;2024-03-29T04:01:57;6.53;;;1.15;;
40959;SDS011;27842;52.272;8.052;2024-03-29T04:04:23;6.65;;;1.50;;
40959;SDS011;27842;52.272;8.052;2024-03-29T04:06:48;6.85;;;1.73;;
40959;SDS011;27842;52.272;8.052;2024-03-29T04:09:14;5.55;;;1.38;;
40959;SDS011;27842;52.272;8.052;2024-03-29T04:11:43;4.25;;;1.10;;
40959;SDS011;27842;52.272;8.052;2024-03-29T04:14:08;4.10;;;1.25;;
40959;SDS011;27842;52.272;8.052;2024-03-29T04:16:34;8.38;;;1.60;;
40959;SDS011;27842;52.272;8.052;2024-03-29T04:19:00;4.30;;;1.30;;
40959;SDS011;27842;52.272;8.052;2024-03-29T04:21:26;5.22;;;0.90;;
40959;SDS011;27842;52.272;8.052;2024-03-29T04:23:51;3.92;;;1.23;;
40959;SDS011;27842;52.272;8.052;2024-03-29T04:26:17;4.45;;;1.20;;
40959;SDS011;27842;52.272;8.052;2024-03-29T04:28:43;5.28;;;1.30;;
40959;SDS011;27842;52.272;8.052;2024-03-29T04:31:08;2.88;;;0.90;;
40959;SDS011;27842;52.272;8.052;2024-03-29T04:33:34;6.40;;;1.08;;
40959;SDS011;27842;52.272;8.052;2024-03-29T04:36:01;8.10;;;1.55;;
40959;SDS011;27842;52.272;8.052;2024-03-29T04:38:28;3.08;;;0.90;;
40959;SDS011;27842;52.272;8.052;2024-03-29T04:40:55;4.10;;;1.10;;
40959;SDS011;27842;52.272;8.052;2024-03-29T04:43:21;5.30;;;1.05;;
40959;SDS011;27842;52.272;8.052;2024-03-29T04:45:48;4.65;;;1.17;;
40959;SDS011;27842;52.272;8.052;2024-03-29T04:48:14;6.05;;;1.10;;
40959;SDS011;27842;52.272;8.052;2024-03-29T04:50:39;5.03;;;1.15;;
40959;SDS011;27842;52.272;8.052;2024-03-29T04:53:05;6.75;;;1.50;;
40959;SDS011;27842;52.272;8.052;2024-03-29T04:55:33;6.85;;;1.17;;
40959;SDS011;27842;52.272;8.052;2024-03-29T04:57:59;5.55;;;1.42;;
40959;SDS011;27842;52.272;8.052;2024-03-29T05:00:24;4.53;;;1.00;;
40959;SDS011;27842;52.272;8.052;2024-03-29T05:02:50;7.15;;;1.17;;
40959;SDS011;27842;52.272;8.052;2024-03-29T05:05:16;7.15;;;1.60;;
40959;SDS011;27842;52.272;8.052;2024-03-29T05:07:41;7.85;;;1.35;;
40959;SDS011;27842;52.272;8.052;2024-03-29T05:10:07;7.13;;;1.65;;
40959;SDS011;27842;52.272;8.052;2024-03-29T05:12:34;6.50;;;1.30;;
40959;SDS011;27842;52.272;8.052;2024-03-29T05:15:03;5.43;;;1.40;;
40959;SDS011;27842;52.272;8.052;2024-03-29T05:17:29;6.60;;;1.13;;
40959;SDS011;27842;52.272;8.052;2024-03-29T05:19:54;10.02;;;1.60;;
40959;SDS011;27842;52.272;8.052;2024-03-29T05:22:20;8.73;;;1.67;;
40959;SDS011;27842;52.272;8.052;2024-03-29T05:24:46;7.40;;;1.38;;
40959;SDS011;27842;52.272;8.052;2024-03-29T05:27:11;6.70;;;1.67;;
40959;SDS011;27842;52.272;8.052;2024-03-29T05:29:37;5.60;;;1.15;;
40959;SDS011;27842;52.272;8.052;2024-03-29T05:32:03;6.18;;;1.65;;
40959;SDS011;27842;52.272;8.052;2024-03-29T05:34:29;5.50;;;1.30;;
40959;SDS011;27842;52.272;8.052;2024-03-29T05:36:55;6.97;;;1.33;;
40959;SDS011;27842;52.272;8.052;2024-03-29T05:39:21;6.05;;;1.30;;
40959;SDS011;27842;52.272;8.052;2024-03-29T05:41:46;5.68;;;1.45;;
40959;SDS011;27842;52.272;8.052;2024-03-29T05:44:12;7.28;;;1.40;;
40959;SDS011;27842;52.272;8.052;2024-03-29T05:46:38;6.25;;;1.27;;
40959;SDS011;27842;52.272;8.052;2024-03-29T05:49:05;1.98;;;1.00;;
40959;SDS011;27842;52.272;8.052;2024-03-29T05:51:31;3.00;;;1.17;;
40959;SDS011;27842;52.272;8.052;2024-03-29T05:53:56;3.90;;;1.23;;
40959;SDS011;27842;52.272;8.052;2024-03-29T05:56:22;5.35;;;1.13;;
40959;SDS011;27842;52.272;8.052;2024-03-29T05:58:47;4.45;;;1.20;;
40959;SDS011;27842;52.272;8.052;2024-03-29T06:01:13;4.90;;;1.30;;
40959;SDS011;27842;52.272;8.052;2024-03-29T06:03:39;7.35;;;1.25;;
40959;SDS011;27842;52.272;8.052;2024-03-29T06:06:04;4.75;;;1.20;;
40959;SDS011;27842;52.272;8.052;2024-03-29T06:08:30;8.10;;;1.33;;
40959;SDS011;27842;52.272;8.052;2024-03-29T06:10:56;5.03;;;1.20;;
40959;SDS011;27842;52.272;8.052;2024-03-29T06:13:22;3.00;;;1.10;;
40959;SDS011;27842;52.272;8.052;2024-03-29T06:16:06;6.13;;;1.40;;
40959;SDS011;27842;52.272;8.052;2024-03-29T06:18:50;4.53;;;1.10;;
40959;SDS011;27842;52.272;8.052;2024-03-29T06:21:16;7.03;;;1.38;;
40959;SDS011;27842;52.272;8.052;2024-03-29T06:23:41;9.35;;;2.03;;
40959;SDS011;27842;52.272;8.052;2024-03-29T06:26:07;6.55;;;1.15;;
40959;SDS011;27842;52.272;8.052;2024-03-29T06:28:32;2.25;;;1.00;;
40959;SDS011;27842;52.272;8.052;2024-03-29T06:30:58;5.32;;;1.65;;
40959;SDS011;27842;52.272;8.052;2024-03-29T06:33:25;5.40;;;1.50;;
40959;SDS011;27842;52.272;8.052;2024-03-29T06:35:54;9.20;;;1.77;;
40959;SDS011;27842;52.272;8.052;2024-03-29T06:38:20;5.35;;;1.38;;
40959;SDS011;27842;52.272;8.052;2024-03-29T06:40:46;6.15;;;1.38;;
40959;SDS011;27842;52.272;8.052;2024-03-29T06:43:11;8.70;;;1.67;;
40959;SDS011;27842;52.272;8.052;2024-03-29T06:45:39;5.45;;;1.25;;
40959;SDS011;27842;52.272;8.052;2024-03-29T06:48:07;2.72;;;1.20;;
40959;SDS011;27842;52.272;8.052;2024-03-29T06:50:33;6.93;;;1.40;;
40959;SDS011;27842;52.272;8.052;2024-03-29T06:52:59;10.40;;;1.70;;
40959;SDS011;27842;52.272;8.052;2024-03-29T06:55:25;4.70;;;1.70;;
40959;SDS011;27842;52.272;8.052;2024-03-29T06:57:51;6.25;;;1.50;;
40959;SDS011;27842;52.272;8.052;2024-03-29T07:00:16;7.00;;;1.40;;
40959;SDS011;27842;52.272;8.052;2024-03-29T07:02:42;6.03;;;1.33;;
40959;SDS011;27842;52.272;8.052;2024-03-29T07:05:08;7.28;;;1.55;;
40959;SDS011;27842;52.272;8.052;2024-03-29T07:07:36;5.43;;;1.58;;
40959;SDS011;27842;52.272;8.052;2024-03-29T07:10:02;9.57;;;1.80;;
40959;SDS011;27842;52.272;8.052;2024-03-29T07:12:28;6.05;;;1.40;;
40959;SDS011;27842;52.272;8.052;2024-03-29T07:14:53;5.18;;;1.25;;
40959;SDS011;27842;52.272;8.052;2024-03-29T07:17:19;5.60;;;1.60;;
40959;SDS011;27842;52.272;8.052;2024-03-29T07:19:45;5.45;;;1.23;;
40959;SDS011;27842;52.272;8.052;2024-03-29T07:22:10;6.22;;;1.50;;
40959;SDS011;27842;52.272;8.052;2024-03-29T07:24:36;4.78;;;1.17;;
40959;SDS011;27842;52.272;8.052;2024-03-29T07:27:01;5.00;;;1.23;;
40959;SDS011;27842;52.272;8.052;2024-03-29T07:29:27;5.38;;;1.40;;
40959;SDS011;27842;52.272;8.052;2024-03-29T07:31:53;2.75;;;1.20;;
40959;SDS011;27842;52.272;8.052;2024-03-29T07:34:19;4.95;;;1.30;;
40959;SDS011;27842;52.272;8.052;2024-03-29T07:36:45;7.82;;;1.80;;
40959;SDS011;27842;52.272;8.052;2024-03-29T07:39:11;5.97;;;1.60;;
40959;SDS011;27842;52.272;8.052;2024-03-29T07:41:37;7.43;;;1.50;;
40959;SDS011;27842;52.272;8.052;2024-03-29T07:44:02;6.97;;;1.60;;
40959;SDS011;27842;52.272;8.052;2024-03-29T07:46:31;11.45;;;1.50;;
40959;SDS011;27842;52.272;8.052;2024-03-29T07:48:58;3.17;;;1.38;;
40959;SDS011;27842;52.272;8.052;2024-03-29T07:51:24;7.43;;;1.40;;
40959;SDS011;27842;52.272;8.052;2024-03-29T07:53:50;7.70;;;1.63;;
40959;SDS011;27842;52.272;8.052;2024-03-29T07:56:15;3.67;;;1.60;;
40959;SDS011;27842;52.272;8.052;2024-03-29T07:58:41;7.22;;;1.60;;
40959;SDS011;27842;52.272;8.052;2024-03-29T08:01:07;7.65;;;1.60;;
40959;SDS011;27842;52.272;8.052;2024-03-29T08:03:33;3.53;;;1.30;;
40959;SDS011;27842;52.272;8.052;2024-03-29T08:05:59;6.25;;;1.67;;
40959;SDS011;27842;52.272;8.052;2024-03-29T08:08:26;7.28;;;1.65;;
40959;SDS011;27842;52.272;8.052;2024-03-29T08:10:53;8.82;;;1.95;;
40959;SDS011;27842;52.272;8.052;2024-03-29T08:13:19;6.93;;;1.60;;
40959;SDS011;27842;52.272;8.052;2024-03-29T08:15:46;5.63;;;1.45;;
40959;SDS011;27842;52.272;8.052;2024-03-29T08:18:12;4.53;;;1.35;;
40959;SDS011;27842;52.272;8.052;2024-03-29T08:20:38;8.52;;;1.75;;
40959;SDS011;27842;52.272;8.052;2024-03-29T08:23:03;7.93;;;1.50;;
40959;SDS011;27842;52.272;8.052;2024-03-29T08:25:29;5.82;;;1.60;;
40959;SDS011;27842;52.272;8.052;2024-03-29T08:27:55;8.68;;;1.95;;
40959;SDS011;27842;52.272;8.052;2024-03-29T08:30:24;7.13;;;1.88;;
40959;SDS011;27842;52.272;8.052;2024-03-29T08:32:53;4.50;;;1.60;;
40959;SDS011;27842;52.272;8.052;2024-03-29T08:35:19;7.70;;;1.90;;
40959;SDS011;27842;52.272;8.052;2024-03-29T08:37:45;9.02;;;1.98;;
40959;SDS011;27842;52.272;8.052;2024-03-29T08:40:11;8.77;;;1.70;;
40959;SDS011;27842;52.272;8.052;2024-03-29T08:42:36;8.43;;;1.80;;
40959;SDS011;27842;52.272;8.052;2024-03-29T08:45:03;7.80;;;1.95;;
40959;SDS011;27842;52.272;8.052;2024-03-29T08:47:31;6.15;;;1.80;;
40959;SDS011;27842;52.272;8.052;2024-03-29T08:49:56;9.52;;;2.65;;
40959;SDS011;27842;52.272;8.052;2024-03-29T08:52:22;6.55;;;1.67;;
40959;SDS011;27842;52.272;8.052;2024-03-29T08:54:47;8.77;;;1.90;;
40959;SDS011;27842;52.272;8.052;2024-03-29T08:57:13;6.78;;;1.77;;
40959;SDS011;27842;52.272;8.052;2024-03-29T08:59:39;10.80;;;2.25;;
40959;SDS011;27842;52.272;8.052;2024-03-29T09:02:06;6.35;;;2.13;;
40959;SDS011;27842;52.272;8.052;2024-03-29T09:04:31;5.30;;;1.63;;
40959;SDS011;27842;52.272;8.052;2024-03-29T09:06:59;4.68;;;1.80;;
40959;SDS011;27842;52.272;8.052;2024-03-29T09:09:27;7.05;;;2.10;;
40959;SDS011;27842;52.272;8.052;2024-03-29T09:11:52;6.50;;;2.10;;
40959;SDS011;27842;52.272;8.052;2024-03-29T09:14:18;6.70;;;2.00;;
40959;SDS011;27842;52.272;8.052;2024-03-29T09:16:43;6.53;;;1.90;;
40959;SDS011;27842;52.272;8.052;2024-03-29T09:19:12;4.53;;;1.57;;
40959;SDS011;27842;52.272;8.052;2024-03-29T09:21:37;7.38;;;2.05;;
40959;SDS011;27842;52.272;8.052;2024-03-29T09:24:03;10.00;;;1.88;;
40959;SDS011;27842;52.272;8.052;2024-03-29T09:26:29;6.90;;;1.60;;
40959;SDS011;27842;52.272;8.052;2024-03-29T09:28:54;9.80;;;2.83;;
40959;SDS011;27842;52.272;8.052;2024-03-29T09:31:20;6.95;;;2.08;;
40959;SDS011;27842;52.272;8.052;2024-03-29T09:33:46;6.50;;;1.83;;
40959;SDS011;27842;52.272;8.052;2024-03-29T09:36:14;5.82;;;1.85;;
40959;SDS011;27842;52.272;8.052;2024-03-29T09:38:40;8.65;;;1.95;;
40959;SDS011;27842;52.272;8.052;2024-03-29T09:41:13;7.07;;;1.60;;
40959;SDS011;27842;52.272;8.052;2024-03-29T09:43:43;4.65;;;1.60;;
40959;SDS011;27842;52.272;8.052;2024-03-29T09:46:09;9.00;;;1.55;;
40959;SDS011;27842;52.272;8.052;2024-03-29T09:48:37;4.45;;;1.67;;
40959;SDS011;27842;52.272;8.052;2024-03-29T09:51:06;5.18;;;1.60;;
40959;SDS011;27842;52.272;8.052;2024-03-29T09:53:34;6.18;;;1.90;;
40959;SDS011;27842;52.272;8.052;2024-03-29T09:56:04;5.85;;;1.58;;
40959;SDS011;27842;52.272;8.052;2024-03-29T09:58:30;5.45;;;1.63;;
40959;SDS011;27842;52.272;8.052;2024-03-29T10:01:02;5.90;;;1.58;;
40959;SDS011;27842;52.272;8.052;2024-03-29T10:03:29;8.77;;;1.98;;
40959;SDS011;27842;52.272;8.052;2024-03-29T10:05:59;5.80;;;1.95;;
40959;SDS011;27842;52.272;8.052;2024-03-29T10:08:28;5.70;;;1.80;;
40959;SDS011;27842;52.272;8.052;2024-03-29T10:10:58;5.50;;;1.60;;
40959;SDS011;27842;52.272;8.052;2024-03-29T10:13:24;4.45;;;1.80;;
40959;SDS011;27842;52.272;8.052;2024-03-29T10:15:51;5.95;;;2.05;;
40959;SDS011;27842;52.272;8.052;2024-03-29T10:18:26;7.03;;;1.75;;
40959;SDS011;27842;52.272;8.052;2024-03-29T10:23:29;2.58;;;1.48;;
40959;SDS011;27842;52.272;8.052;2024-03-29T10:25:55;6.80;;;2.33;;
40959;SDS011;27842;52.272;8.052;2024-03-29T10:28:21;7.88;;;2.28;;
40959;SDS011;27842;52.272;8.052;2024-03-29T10:30:47;6.97;;;1.85;;
40959;SDS011;27842;52.272;8.052;2024-03-29T10:33:14;5.05;;;1.80;;
40959;SDS011;27842;52.272;8.052;2024-03-29T10:35:43;3.63;;;1.70;;
40959;SDS011;27842;52.272;8.052;2024-03-29T10:40:39;5.05;;;1.90;;
40959;SDS011;27842;52.272;8.052;2024-03-29T10:43:10;5.85;;;1.80;;
40959;SDS011;27842;52.272;8.052;2024-03-29T10:45:38;3.72;;;1.50;;
40959;SDS011;27842;52.272;8.052;2024-03-29T10:48:05;5.75;;;1.73;;
40959;SDS011;27842;52.272;8.052;2024-03-29T10:50:36;6.60;;;2.10;;
40959;SDS011;27842;52.272;8.052;2024-03-29T10:53:04;9.57;;;3.20;;
40959;SDS011;27842;52.272;8.052;2024-03-29T10:55:30;14.05;;;4.18;;
40959;SDS011;27842;52.272;8.052;2024-03-29T10:57:58;8.53;;;2.50;;
40959;SDS011;27842;52.272;8.052;2024-03-29T11:00:26;8.82;;;2.70;;
40959;SDS011;27842;52.272;8.052;2024-03-29T11:05:30;5.22;;;1.90;;
40959;SDS011;27842;52.272;8.052;2024-03-29T11:07:58;4.30;;;1.67;;
40959;SDS011;27842;52.272;8.052;2024-03-29T11:10:29;5.80;;;1.73;;
40959;SDS011;27842;52.272;8.052;2024-03-29T11:15:45;4.28;;;1.77;;
40959;SDS011;27842;52.272;8.052;2024-03-29T11:18:13;4.50;;;1.80;;
40959;SDS011;27842;52.272;8.052;2024-03-29T11:20:41;6.05;;;1.90;;
40959;SDS011;27842;52.272;8.052;2024-03-29T11:23:12;5.35;;;1.80;;
40959;SDS011;27842;52.272;8.052;2024-03-29T11:28:14;4.30;;;1.52;;
40959;SDS011;27842;52.272;8.052;2024-03-29T11:30:49;5.85;;;2.35;;
40959;SDS011;27842;52.272;8.052;2024-03-29T11:33:29;4.28;;;1.70;;
40959;SDS011;27842;52.272;8.052;2024-03-29T11:36:00;4.18;;;1.60;;
40959;SDS011;27842;52.272;8.052;2024-03-29T11:38:32;4.40;;;1.90;;
40959;SDS011;27842;52.272;8.052;2024-03-29T11:41:03;5.85;;;1.95;;
40959;SDS011;27842;52.272;8.052;2024-03-29T11:43:31;6.45;;;1.80;;
40959;SDS011;27842;52.272;8.052;2024-03-29T11:46:15;6.07;;;1.98;;
40959;SDS011;27842;52.272;8.052;2024-03-29T11:48:41;4.18;;;1.70;;
40959;SDS011;27842;52.272;8.052;2024-03-29T11:51:08;6.30;;;2.17;;
40959;SDS011;27842;52.272;8.052;2024-03-29T11:53:36;13.80;;;4.53;;
40959;SDS011;27842;52.272;8.052;2024-03-29T11:56:02;10.57;;;3.58;;
40959;SDS011;27842;52.272;8.052;2024-03-29T11:58:29;6.00;;;2.10;;
40959;SDS011;27842;52.272;8.052;2024-03-29T12:00:56;5.10;;;2.05;;
40959;SDS011;27842;52.272;8.052;2024-03-29T12:03:24;4.35;;;1.90;;
40959;SDS011;27842;52.272;8.052;2024-03-29T12:05:50;6.65;;;2.10;;
40959;SDS011;27842;52.272;8.052;2024-03-29T12:08:19;2.88;;;1.77;;
40959;SDS011;27842;52.272;8.052;2024-03-29T12:10:45;6.18;;;1.80;;
40959;SDS011;27842;52.272;8.052;2024-03-29T12:13:11;4.57;;;1.60;;
40959;SDS011;27842;52.272;8.052;2024-03-29T12:15:36;6.75;;;1.88;;
40959;SDS011;27842;52.272;8.052;2024-03-29T12:18:03;5.85;;;1.67;;
40959;SDS011;27842;52.272;8.052;2024-03-29T12:20:33;6.47;;;2.03;;
40959;SDS011;27842;52.272;8.052;2024-03-29T12:23:02;8.48;;;2.38;;
40959;SDS011;27842;52.272;8.052;2024-03-29T12:25:28;7.60;;;1.70;;
40959;SDS011;27842;52.272;8.052;2024-03-29T12:27:55;6.13;;;2.00;;
40959;SDS011;27842;52.272;8.052;2024-03-29T12:30:21;5.32;;;2.00;;
40959;SDS011;27842;52.272;8.052;2024-03-29T12:32:47;3.05;;;1.70;;
40959;SDS011;27842;52.272;8.052;2024-03-29T12:35:16;6.45;;;1.90;;
40959;SDS011;27842;52.272;8.052;2024-03-29T12:37:48;4.60;;;1.83;;
40959;SDS011;27842;52.272;8.052;2024-03-29T12:40:17;3.92;;;1.90;;
40959;SDS011;27842;52.272;8.052;2024-03-29T12:42:47;6.22;;;2.10;;
40959;SDS011;27842;52.272;8.052;2024-03-29T12:45:13;5.10;;;1.90;;
40959;SDS011;27842;52.272;8.052;2024-03-29T12:47:39;7.75;;;2.00;;
40959;SDS011;27842;52.272;8.052;2024-03-29T12:50:05;4.22;;;1.83;;
40959;SDS011;27842;52.272;8.052;2024-03-29T12:52:40;5.63;;;1.98;;
40959;SDS011;27842;52.272;8.052;2024-03-29T12:55:07;3.08;;;1.88;;
40959;SDS011;27842;52.272;8.052;2024-03-29T12:57:39;6.90;;;2.25;;
40959;SDS011;27842;52.272;8.052;2024-03-29T13:00:07;5.70;;;2.40;;
40959;SDS011;27842;52.272;8.052;2024-03-29T13:02:35;7.13;;;2.88;;
40959;SDS011;27842;52.272;8.052;2024-03-29T13:05:01;9.05;;;3.47;;
40959;SDS011;27842;52.272;8.052;2024-03-29T13:07:29;7.18;;;3.10;;
40959;SDS011;27842;52.272;8.052;2024-03-29T13:09:55;6.80;;;2.63;;
40959;SDS011;27842;52.272;8.052;2024-03-29T13:12:21;6.07;;;2.55;;
40959;SDS011;27842;52.272;8.052;2024-03-29T13:14:46;6.90;;;2.80;;
40959;SDS011;27842;52.272;8.052;2024-03-29T13:17:12;10.82;;;3.75;;
40959;SDS011;27842;52.272;8.052;2024-03-29T13:19:38;8.07;;;3.20;;
40959;SDS011;27842;52.272;8.052;2024-03-29T13:22:03;8.57;;;3.03;;
40959;SDS011;27842;52.272;8.052;2024-03-29T13:24:31;11.18;;;4.03;;
40959;SDS011;27842;52.272;8.052;2024-03-29T13:26:57;7.32;;;3.47;;
40959;SDS011;27842;52.272;8.052;2024-03-29T13:29:22;9.95;;;4.30;;
40959;SDS011;27842;52.272;8.052;2024-03-29T13:31:48;8.90;;;3.15;;
40959;SDS011;27842;52.272;8.052;2024-03-29T13:34:14;7.55;;;3.40;;
40959;SDS011;27842;52.272;8.052;2024-03-29T13:36:41;7.18;;;3.42;;
40959;SDS011;27842;52.272;8.052;2024-03-29T13:39:07;13.55;;;5.03;;
40959;SDS011;27842;52.272;8.052;2024-03-29T13:41:34;15.07;;;5.75;;
40959;SDS011;27842;52.272;8.052;2024-03-29T13:44:03;9.48;;;3.80;;
40959;SDS011;27842;52.272;8.052;2024-03-29T13:46:33;10.38;;;4.00;;
40959;SDS011;27842;52.272;8.052;2024-03-29T13:49:00;11.82;;;4.28;;
40959;SDS011;27842;52.272;8.052;2024-03-29T13:51:26;11.27;;;4.30;;
40959;SDS011;27842;52.272;8.052;2024-03-29T13:53:52;13.45;;;4.75;;
40959;SDS011;27842;52.272;8.052;2024-03-29T13:56:19;10.40;;;3.20;;
40959;SDS011;27842;52.272;8.052;2024-03-29T13:58:45;8.00;;;3.00;;
40959;SDS011;27842;52.272;8.052;2024-03-29T14:01:10;6.05;;;2.85;;
40959;SDS011;27842;52.272;8.052;2024-03-29T14:03:36;8.05;;;2.95;;
40959;SDS011;27842;52.272;8.052;2024-03-29T14:06:02;9.15;;;3.13;;
40959;SDS011;27842;52.272;8.052;2024-03-29T14:08:29;4.85;;;2.60;;
40959;SDS011;27842;52.272;8.052;2024-03-29T14:10:55;6.43;;;3.03;;
40959;SDS011;27842;52.272;8.052;2024-03-29T14:13:20;4.90;;;2.70;;
40959;SDS011;27842;52.272;8.052;2024-03-29T14:15:46;6.35;;;2.97;;
40959;SDS011;27842;52.272;8.052;2024-03-29T14:18:11;6.55;;;2.80;;
40959;SDS011;27842;52.272;8.052;2024-03-29T14:20:38;5.82;;;2.50;;
40959;SDS011;27842;52.272;8.052;2024-03-29T14:23:04;4.90;;;2.60;;
40959;SDS011;27842;52.272;8.052;2024-03-29T14:25:31;7.25;;;3.20;;
40959;SDS011;27842;52.272;8.052;2024-03-29T14:27:57;10.13;;;3.78;;
40959;SDS011;27842;52.272;8.052;2024-03-29T14:30:24;8.80;;;3.08;;
40959;SDS011;27842;52.272;8.052;2024-03-29T14:32:51;7.53;;;3.25;;
40959;SDS011;27842;52.272;8.052;2024-03-29T14:35:17;9.70;;;3.20;;
40959;SDS011;27842;52.272;8.052;2024-03-29T14:37:43;7.57;;;3.30;;
40959;SDS011;27842;52.272;8.052;2024-03-29T14:40:09;8.55;;;3.22;;
40959;SDS011;27842;52.272;8.052;2024-03-29T14:42:37;8.00;;;3.00;;
40959;SDS011;27842;52.272;8.052;2024-03-29T14:45:04;9.07;;;3.20;;
40959;SDS011;27842;52.272;8.052;2024-03-29T14:47:31;12.02;;;4.35;;
40959;SDS011;27842;52.272;8.052;2024-03-29T14:49:57;9.73;;;3.20;;
40959;SDS011;27842;52.272;8.052;2024-03-29T14:52:24;7.13;;;2.50;;
40959;SDS011;27842;52.272;8.052;2024-03-29T14:54:49;4.60;;;2.42;;
40959;SDS011;27842;52.272;8.052;2024-03-29T14:57:15;4.45;;;2.33;;
40959;SDS011;27842;52.272;8.052;2024-03-29T14:59:40;6.68;;;2.58;;